Time;durP1;ratioP1;P1;durP2;ratioP2;P2;SDS_P1;SDS_P2;PMS_P1;PMS_P2;Temp;Humidity;BMP_temperature;BMP_pressure;BME280_temperature;BME280_humidity;BME280_pressure;Samples;Min_cycle;Max_cycle;Signal;HPM_P1;HPM_P2
2022/11/23 00:01:46;;;;;;;0.13;0.00;;;;;;;9.09;71.09;98785.00;5081322;28;20028;-74
2022/11/23 00:04:12;;;;;;;0.00;0.00;;;;;;;9.05;71.61;98784.53;5080000;28;20032;-75
2022/11/23 00:06:38;;;;;;;0.20;0.00;;;;;;;9.05;71.21;98792.34;5079241;28;20032;-74
2022/11/23 00:09:03;;;;;;;0.03;0.00;;;;;;;9.05;70.81;98778.53;5079434;28;20036;-75
2022/11/23 00:11:29;;;;;;;0.10;0.00;;;;;;;9.00;72.09;98792.06;5078977;28;20031;-75
2022/11/23 00:13:55;;;;;;;0.90;0.20;;;;;;;9.05;72.83;98791.53;5080263;28;20874;-75
2022/11/23 00:16:26;;;;;;;0.30;0.10;;;;;;;9.03;70.47;98809.09;5081581;28;20081;-74
2022/11/23 00:18:55;;;;;;;0.98;0.00;;;;;;;9.08;71.18;98793.78;5083638;28;20031;-74
2022/11/23 00:21:21;;;;;;;0.00;0.00;;;;;;;9.07;71.83;98792.16;5084267;28;20127;-74
2022/11/23 00:23:48;;;;;;;0.63;0.00;;;;;;;9.06;70.71;98800.94;5079250;28;20040;-74
2022/11/23 00:26:14;;;;;;;0.00;0.00;;;;;;;9.09;72.89;98785.00;5079768;28;20119;-75
2022/11/23 00:28:41;;;;;;;0.00;0.00;;;;;;;9.06;71.65;98800.94;5081420;28;20578;-75
2022/11/23 00:31:08;;;;;;;0.00;0.00;;;;;;;9.00;72.41;98805.03;5081891;28;20040;-75
2022/11/23 00:33:34;;;;;;;0.00;0.00;;;;;;;9.04;72.05;98814.09;5081369;28;20020;-74
2022/11/23 00:36:06;;;;;;;0.00;0.00;;;;;;;9.11;71.48;98814.22;5079704;28;20495;-76
2022/11/23 00:38:32;;;;;;;0.00;0.00;;;;;;;9.09;72.67;98823.97;5080012;28;20135;-76
2022/11/23 00:41:06;;;;;;;0.00;0.00;;;;;;;9.06;71.75;98816.53;5082608;28;20170;-75
2022/11/23 00:43:32;;;;;;;0.00;0.00;;;;;;;9.07;71.38;98812.94;5089330;28;20475;-74
2022/11/23 00:46:10;;;;;;;0.00;0.00;;;;;;;9.08;72.61;98824.97;5089232;28;20036;-76
2022/11/23 00:48:36;;;;;;;0.00;0.00;;;;;;;9.10;71.92;98828.19;5080702;28;20055;-75
2022/11/23 00:51:04;;;;;;;0.00;0.00;;;;;;;9.15;70.96;98831.06;5083055;28;20100;-75
2022/11/23 00:53:29;;;;;;;0.00;0.00;;;;;;;9.14;72.46;98837.25;5081214;28;20048;-76
2022/11/23 00:55:56;;;;;;;0.00;0.00;;;;;;;9.13;71.64;98838.22;5079276;28;20372;-75
2022/11/23 00:58:22;;;;;;;0.00;0.00;;;;;;;9.14;71.57;98837.25;5079224;28;20086;-75
2022/11/23 01:00:47;;;;;;;0.00;0.00;;;;;;;9.17;70.45;98848.09;5082242;28;20032;-75
2022/11/23 01:03:14;;;;;;;0.00;0.00;;;;;;;9.23;70.74;98846.59;5087681;28;20020;-75
2022/11/23 01:05:40;;;;;;;0.00;0.00;;;;;;;9.27;68.57;98855.66;5083983;28;20436;-75
2022/11/23 01:08:06;;;;;;;0.08;0.00;;;;;;;9.32;70.12;98850.75;5083891;28;20053;-74
2022/11/23 01:10:31;;;;;;;0.00;0.00;;;;;;;9.24;70.04;98856.00;5082422;28;21660;-76
2022/11/23 01:12:58;;;;;;;0.00;0.00;;;;;;;9.27;69.33;98860.88;5083108;28;20127;-75
2022/11/23 01:15:23;;;;;;;0.00;0.00;;;;;;;9.25;70.43;98855.03;5083017;28;20020;-75
2022/11/23 01:17:49;;;;;;;0.00;0.00;;;;;;;9.25;69.98;98868.03;5087573;28;20101;-75
2022/11/23 01:20:14;;;;;;;0.00;0.00;;;;;;;9.25;71.47;98873.22;5085008;28;20036;-76
2022/11/23 01:22:40;;;;;;;0.10;0.00;;;;;;;9.21;71.45;98866.75;5084471;28;20486;-75
2022/11/23 01:25:06;;;;;;;0.00;0.00;;;;;;;9.23;69.86;98881.19;5081986;28;20139;-75
2022/11/23 01:27:32;;;;;;;0.00;0.00;;;;;;;9.40;69.06;98878.47;5084769;28;20442;-76
2022/11/23 01:29:57;;;;;;;0.00;0.00;;;;;;;9.42;67.62;98885.13;5084867;28;20051;-75
2022/11/23 01:32:23;;;;;;;0.00;0.00;;;;;;;9.42;69.57;98885.13;5083205;28;20036;-76
2022/11/23 01:34:48;;;;;;;0.00;0.00;;;;;;;9.39;68.40;98879.47;5074798;28;20048;-75
2022/11/23 01:37:14;;;;;;;0.00;0.00;;;;;;;9.43;69.25;98894.53;5081733;28;20028;-76
2022/11/23 01:39:39;;;;;;;0.00;0.00;;;;;;;9.35;69.24;98894.59;5083550;28;20028;-76
2022/11/23 01:42:07;;;;;;;0.05;0.00;;;;;;;9.38;70.35;98893.44;5084953;28;20074;-76
2022/11/23 01:44:35;;;;;;;0.10;0.00;;;;;;;9.41;69.71;98895.69;5082599;28;20032;-76
2022/11/23 01:47:03;;;;;;;0.00;0.00;;;;;;;9.46;67.82;98901.13;5084400;28;20036;-75
2022/11/23 01:49:39;;;;;;;0.00;0.00;;;;;;;9.63;64.57;98906.03;5082903;28;20111;-76
2022/11/23 01:52:14;;;;;;;0.10;0.00;;;;;;;9.61;65.80;98907.19;5083386;28;20036;-76
2022/11/23 01:54:45;;;;;;;0.10;0.00;;;;;;;9.61;66.76;98908.00;5083387;28;20032;-76
2022/11/23 01:57:20;;;;;;;0.10;0.00;;;;;;;9.54;66.25;98907.09;5081256;28;20399;-75
2022/11/23 01:59:46;;;;;;;0.00;0.00;;;;;;;9.54;68.16;98920.09;5083282;28;20458;-76
2022/11/23 02:02:13;;;;;;;0.00;0.00;;;;;;;9.56;67.14;98918.13;5082580;28;20048;-75
2022/11/23 02:04:42;;;;;;;0.03;0.03;;;;;;;9.49;69.99;98922.41;5082797;28;20028;-76
2022/11/23 02:07:08;;;;;;;0.13;0.00;;;;;;;9.42;70.24;98925.91;5081464;28;20105;-76
2022/11/23 02:09:34;;;;;;;0.40;0.00;;;;;;;9.47;69.36;98919.16;5082592;28;20058;-76
2022/11/23 02:12:00;;;;;;;2.15;0.10;;;;;;;9.51;69.07;98924.81;5082740;28;20039;-76
2022/11/23 02:14:26;;;;;;;0.00;0.00;;;;;;;9.62;64.99;98933.03;5081723;28;20047;-75
2022/11/23 02:16:52;;;;;;;0.00;0.00;;;;;;;9.68;67.01;98926.31;5083629;28;20032;-75
2022/11/23 02:19:34;;;;;;;0.00;0.00;;;;;;;9.62;65.21;98933.03;5082940;28;20033;-75
2022/11/23 02:21:59;;;;;;;0.20;0.08;;;;;;;9.68;67.26;98938.50;5083692;28;20036;-75
2022/11/23 02:24:35;;;;;;;0.50;0.00;;;;;;;9.56;66.47;98944.13;5083157;28;20077;-76
2022/11/23 02:27:03;;;;;;;0.10;0.00;;;;;;;9.56;68.11;98941.53;5082212;28;20039;-76
2022/11/23 02:29:29;;;;;;;0.05;0.00;;;;;;;9.54;67.48;98938.28;5095388;28;20028;-75
2022/11/23 02:31:54;;;;;;;0.30;0.00;;;;;;;9.49;68.56;98948.41;5098545;28;20456;-75
2022/11/23 02:34:20;;;;;;;0.65;0.00;;;;;;;9.46;68.79;98945.34;5089148;28;20058;-75
2022/11/23 02:36:48;;;;;;;0.20;0.00;;;;;;;9.45;69.72;98948.94;5081822;28;20122;-75
2022/11/23 02:39:29;;;;;;;0.20;0.17;;;;;;;9.39;68.49;98958.25;5084844;28;20553;-76
2022/11/23 02:41:54;;;;;;;0.20;0.00;;;;;;;9.39;70.79;98962.63;5085085;28;20081;-76
2022/11/23 02:44:26;;;;;;;0.00;0.00;;;;;;;9.26;72.40;98968.41;5082332;28;20036;-75
2022/11/23 02:46:52;;;;;;;0.10;0.00;;;;;;;9.07;74.45;98974.03;5081916;28;20434;-76
2022/11/23 02:49:18;;;;;;;0.10;0.00;;;;;;;8.99;75.20;98983.47;5081305;28;20039;-75
2022/11/23 02:51:43;;;;;;;0.00;0.00;;;;;;;8.89;77.11;98980.31;5085124;28;20096;-76
2022/11/23 02:54:09;;;;;;;0.00;0.00;;;;;;;8.79;78.22;98987.47;5086051;28;20028;-76
2022/11/23 02:56:34;;;;;;;0.00;0.00;;;;;;;8.73;79.41;98989.94;5082030;28;20044;-76
2022/11/23 02:59:00;;;;;;;0.00;0.00;;;;;;;8.65;80.26;98998.56;5082425;28;20052;-76
2022/11/23 03:01:26;;;;;;;0.00;0.00;;;;;;;8.58;81.35;98989.81;5081421;28;20032;-76
2022/11/23 03:03:52;;;;;;;0.00;0.00;;;;;;;8.54;82.21;98981.56;5083055;28;20032;-75
2022/11/23 03:06:17;;;;;;;0.00;0.00;;;;;;;8.52;83.07;98986.09;5081680;28;20109;-76
2022/11/23 03:08:42;;;;;;;0.00;0.00;;;;;;;8.49;84.00;98994.25;5081723;28;20020;-75
2022/11/23 03:11:08;;;;;;;0.10;0.00;;;;;;;8.45;84.75;98999.94;5082145;28;20046;-75
2022/11/23 03:13:33;;;;;;;0.00;0.00;;;;;;;8.40;85.64;99003.03;5091262;28;20118;-75
2022/11/23 03:15:59;;;;;;;0.10;0.00;;;;;;;8.36;86.65;99003.53;5091057;28;20065;-75
2022/11/23 03:18:25;;;;;;;1.75;0.00;;;;;;;8.30;87.96;99003.19;5082573;28;20024;-75
2022/11/23 03:20:50;;;;;;;0.05;0.00;;;;;;;8.25;89.33;99007.25;5083954;28;20028;-76
2022/11/23 03:23:16;;;;;;;1.23;0.00;;;;;;;8.21;91.08;99014.53;5080512;28;20402;-76
2022/11/23 03:25:41;;;;;;;0.20;0.00;;;;;;;8.16;91.84;99016.00;5081456;28;20494;-76
2022/11/23 03:28:07;;;;;;;0.00;0.00;;;;;;;8.09;93.30;99021.03;5083728;28;20032;-76
2022/11/23 03:30:32;;;;;;;0.32;0.00;;;;;;;8.05;94.69;99030.13;5082247;28;20043;-75
2022/11/23 03:32:58;;;;;;;0.10;0.00;;;;;;;7.97;95.76;99032.75;5081118;28;20039;-76
2022/11/23 03:35:23;;;;;;;0.30;0.00;;;;;;;7.90;96.55;99024.78;5082804;28;20196;-75
2022/11/23 03:37:49;;;;;;;0.52;0.00;;;;;;;7.85;97.16;99034.84;5080684;28;20035;-75
2022/11/23 03:40:14;;;;;;;0.20;0.00;;;;;;;7.77;98.52;99037.44;5080098;28;20027;-75
2022/11/23 03:42:40;;;;;;;0.10;0.00;;;;;;;7.73;99.26;99036.13;5081389;28;20047;-75
2022/11/23 03:45:07;;;;;;;0.20;0.00;;;;;;;7.66;100.00;99041.13;5082962;28;20028;-76
2022/11/23 03:47:32;;;;;;;0.00;0.00;;;;;;;7.56;100.00;99042.28;5079942;28;20038;-75
2022/11/23 03:49:58;;;;;;;0.10;0.00;;;;;;;7.49;100.00;99049.06;5078681;28;20027;-76
2022/11/23 03:52:23;;;;;;;1.63;0.00;;;;;;;7.44;100.00;99056.50;5079583;28;20024;-75
2022/11/23 03:54:48;;;;;;;1.05;0.00;;;;;;;7.37;100.00;99058.91;5080956;28;20038;-75
2022/11/23 03:57:14;;;;;;;0.20;0.00;;;;;;;7.30;100.00;99065.69;5081111;28;20057;-76
2022/11/23 03:59:39;;;;;;;0.30;0.00;;;;;;;7.31;100.00;99062.13;5081526;28;20036;-75
2022/11/23 04:02:06;;;;;;;0.20;0.00;;;;;;;7.33;100.00;99076.56;5081035;28;20395;-75
2022/11/23 04:04:32;;;;;;;0.10;0.00;;;;;;;7.30;100.00;99078.66;5079862;28;20065;-76
2022/11/23 04:06:58;;;;;;;1.33;0.30;;;;;;;7.26;100.00;99078.16;5078321;28;20042;-76
2022/11/23 04:09:23;;;;;;;1.90;0.20;;;;;;;7.25;100.00;99083.47;5080501;28;20036;-76
2022/11/23 04:11:49;;;;;;;1.13;0.10;;;;;;;7.23;100.00;99081.03;5081320;28;20043;-75
2022/11/23 04:14:14;;;;;;;0.20;0.00;;;;;;;7.22;100.00;99088.97;5079264;28;20028;-75
2022/11/23 04:16:39;;;;;;;0.20;0.00;;;;;;;7.19;100.00;99092.69;5080186;28;20036;-75
2022/11/23 04:19:05;;;;;;;0.28;0.10;;;;;;;7.19;100.00;99091.88;5082208;28;20119;-75
2022/11/23 04:21:30;;;;;;;0.30;0.10;;;;;;;7.19;100.00;99097.06;5086736;28;20114;-76
2022/11/23 04:23:56;;;;;;;1.77;0.40;;;;;;;7.15;100.00;99095.75;5080453;28;20065;-76
2022/11/23 04:26:21;;;;;;;1.40;0.30;;;;;;;7.14;100.00;99101.88;5080202;28;20040;-75
2022/11/23 04:28:46;;;;;;;1.35;0.40;;;;;;;7.12;100.00;99099.44;5081412;28;20238;-76
2022/11/23 04:31:12;;;;;;;10.00;3.50;;;;;;;7.11;100.00;99099.59;5079714;28;20094;-75
2022/11/23 04:33:37;;;;;;;6.35;2.30;;;;;;;7.12;100.00;99111.59;5082007;28;20016;-76
2022/11/23 04:36:03;;;;;;;19.05;5.82;;;;;;;7.12;100.00;99122.75;5080968;28;20442;-75
2022/11/23 04:38:28;;;;;;;6.35;2.45;;;;;;;7.11;100.00;99126.31;5079063;28;20051;-76
2022/11/23 04:40:54;;;;;;;2.53;0.80;;;;;;;7.09;100.00;99127.47;5082005;28;20056;-75
2022/11/23 04:43:19;;;;;;;4.47;1.00;;;;;;;7.03;100.00;99128.91;5098509;28;20020;-75
2022/11/23 04:45:45;;;;;;;2.30;0.45;;;;;;;7.01;100.00;99132.59;5090256;28;20043;-76
2022/11/23 04:48:10;;;;;;;5.47;0.98;;;;;;;7.00;100.00;99134.38;5081731;28;20146;-75
2022/11/23 04:50:36;;;;;;;2.83;0.63;;;;;;;6.93;100.00;99136.78;5080425;28;20059;-76
2022/11/23 04:53:03;;;;;;;2.30;0.50;;;;;;;6.92;100.00;99136.91;5080352;28;20482;-76
2022/11/23 04:55:28;;;;;;;1.77;0.20;;;;;;;6.89;100.00;99130.28;5081227;28;20035;-75
2022/11/23 04:57:54;;;;;;;1.20;0.13;;;;;;;6.87;100.00;99136.56;5080659;28;20024;-75
2022/11/23 05:00:19;;;;;;;1.10;0.10;;;;;;;6.80;100.00;99136.34;5080486;28;20029;-76
2022/11/23 05:02:44;;;;;;;5.00;0.70;;;;;;;6.81;100.00;99137.97;5080179;28;21588;-75
2022/11/23 05:05:10;;;;;;;1.50;0.17;;;;;;;6.83;100.00;99141.22;5081644;28;20052;-76
2022/11/23 05:07:35;;;;;;;0.68;0.10;;;;;;;6.80;100.00;99136.34;5079166;28;20056;-75
2022/11/23 05:10:02;;;;;;;1.23;0.00;;;;;;;6.80;100.00;99133.78;5080927;28;20041;-75
2022/11/23 05:12:27;;;;;;;6.25;0.75;;;;;;;6.85;100.00;99143.66;5080185;28;20030;-75
2022/11/23 05:14:53;;;;;;;3.60;0.40;;;;;;;6.80;100.00;99144.13;5079173;28;20036;-76
2022/11/23 05:17:18;;;;;;;3.45;0.30;;;;;;;6.84;100.00;99155.00;5078165;28;20031;-76
2022/11/23 05:19:44;;;;;;;25.13;3.28;;;;;;;6.76;100.00;99152.34;5080717;28;20035;-75
2022/11/23 05:22:09;;;;;;;15.00;2.47;;;;;;;6.77;100.00;99156.56;5080657;28;20119;-75
2022/11/23 05:24:35;;;;;;;8.43;1.10;;;;;;;6.79;100.00;99168.38;5077977;28;20071;-75
2022/11/23 05:27:00;;;;;;;1.05;0.20;;;;;;;6.75;100.00;99166.25;5079897;28;20036;-75
2022/11/23 05:29:26;;;;;;;7.07;1.13;;;;;;;6.74;100.00;99170.63;5080018;28;20032;-75
2022/11/23 05:31:51;;;;;;;1.30;0.20;;;;;;;6.76;100.00;99176.47;5080202;28;20047;-75
2022/11/23 05:34:16;;;;;;;0.82;0.10;;;;;;;6.74;100.00;99178.38;5078743;28;20036;-75
2022/11/23 05:36:42;;;;;;;1.00;0.10;;;;;;;6.69;100.00;99180.59;5080220;28;20036;-75
2022/11/23 05:39:07;;;;;;;3.85;0.73;;;;;;;6.68;100.00;99183.34;5079934;28;20036;-75
2022/11/23 05:41:33;;;;;;;5.38;1.10;;;;;;;6.67;100.00;99185.13;5080248;28;20039;-75
2022/11/23 05:43:58;;;;;;;2.47;0.70;;;;;;;6.66;100.00;99183.50;5080304;28;20931;-75
2022/11/23 05:46:23;;;;;;;2.05;0.30;;;;;;;6.66;100.00;99192.06;5079990;28;20028;-75
2022/11/23 05:48:49;;;;;;;0.50;0.10;;;;;;;6.63;100.00;99186.38;5082760;28;20028;-75
2022/11/23 05:51:14;;;;;;;1.42;0.10;;;;;;;6.60;100.00;99184.13;5083637;28;20040;-75
2022/11/23 05:53:40;;;;;;;0.22;0.08;;;;;;;6.56;100.00;99186.19;5086705;28;20027;-75
2022/11/23 05:56:05;;;;;;;0.50;0.10;;;;;;;6.58;100.00;99178.28;5082789;28;20452;-75
2022/11/23 05:58:31;;;;;;;0.28;0.10;;;;;;;6.57;100.00;99182.66;5083164;28;20055;-75
2022/11/23 06:01:00;;;;;;;0.75;0.10;;;;;;;6.58;100.00;99183.47;5082938;28;20113;-75
2022/11/23 06:03:26;;;;;;;0.50;0.10;;;;;;;6.62;100.00;99187.34;5074960;28;20031;-75
2022/11/23 06:05:51;;;;;;;0.43;0.00;;;;;;;6.62;100.00;99179.56;5082285;28;21236;-75
2022/11/23 06:08:17;;;;;;;0.75;0.10;;;;;;;6.65;100.00;99181.88;5082687;28;20046;-76
2022/11/23 06:10:42;;;;;;;0.20;0.00;;;;;;;6.64;100.00;99178.47;5086530;28;20035;-75
2022/11/23 06:13:07;;;;;;;0.50;0.10;;;;;;;6.65;100.00;99192.22;5087677;28;20035;-75
2022/11/23 06:15:33;;;;;;;0.30;0.10;;;;;;;6.65;100.00;99187.03;5098250;28;20161;-75
2022/11/23 06:18:00;;;;;;;4.22;0.52;;;;;;;6.66;100.00;99183.50;5097439;28;20027;-76
2022/11/23 06:20:27;;;;;;;1.80;0.20;;;;;;;6.63;100.00;99191.56;5093026;28;20356;-75
2022/11/23 06:22:53;;;;;;;1.98;0.50;;;;;;;6.62;100.00;99200.28;5084013;28;20052;-75
2022/11/23 06:25:19;;;;;;;0.80;0.25;;;;;;;6.61;100.00;99209.03;5082712;28;20062;-75
2022/11/23 06:27:53;;;;;;;0.60;0.20;;;;;;;6.58;100.00;99207.56;5082186;28;20028;-76
2022/11/23 06:30:19;;;;;;;0.80;0.30;;;;;;;6.58;100.00;99217.91;5079962;28;20383;-75
2022/11/23 06:32:44;;;;;;;1.65;0.30;;;;;;;6.57;100.00;99215.47;5083040;28;20111;-75
2022/11/23 06:35:10;;;;;;;2.50;0.30;;;;;;;6.59;100.00;99216.97;5083945;28;20047;-76
2022/11/23 06:37:35;;;;;;;1.88;0.30;;;;;;;6.61;100.00;99219.41;5082188;28;20039;-76
2022/11/23 06:40:00;;;;;;;1.25;0.22;;;;;;;6.58;100.00;99217.09;5083601;28;20118;-76
2022/11/23 06:42:26;;;;;;;1.88;0.52;;;;;;;6.58;100.00;99222.28;5082884;28;20036;-76
2022/11/23 06:44:51;;;;;;;1.52;0.35;;;;;;;6.61;100.00;99224.56;5081338;28;20032;-75
2022/11/23 06:47:17;;;;;;;1.70;0.40;;;;;;;6.62;100.00;99226.16;5082172;28;20124;-75
2022/11/23 06:49:42;;;;;;;1.45;0.30;;;;;;;6.63;100.00;99228.59;5082403;28;20070;-76
2022/11/23 06:52:07;;;;;;;1.77;0.40;;;;;;;6.66;100.00;99241.25;5082389;28;20126;-75
2022/11/23 06:54:33;;;;;;;1.42;0.45;;;;;;;6.68;100.00;99246.28;5081907;28;20040;-75
2022/11/23 06:56:58;;;;;;;2.35;0.30;;;;;;;6.72;100.00;99245.03;5098529;28;20031;-75
2022/11/23 06:59:24;;;;;;;1.15;0.40;;;;;;;6.75;100.00;99251.69;5082097;28;20036;-76
2022/11/23 07:01:49;;;;;;;3.15;0.40;;;;;;;6.76;100.00;99259.28;5082816;28;20028;-75
2022/11/23 07:04:15;;;;;;;2.30;0.65;;;;;;;6.80;100.00;99260.63;5054465;28;20035;-75
2022/11/23 07:06:40;;;;;;;2.33;0.45;;;;;;;6.84;100.00;99261.94;5082063;28;20051;-75
2022/11/23 07:09:06;;;;;;;4.35;1.83;;;;;;;6.89;100.00;99269.28;5080010;28;20031;-76
2022/11/23 07:11:31;;;;;;;9.05;6.28;;;;;;;6.90;100.00;99263.94;5080690;28;20470;-76
2022/11/23 07:13:57;;;;;;;10.52;4.50;;;;;;;6.91;100.00;99264.75;5082957;28;20028;-75
2022/11/23 07:16:22;;;;;;;7.43;4.15;;;;;;;6.89;100.00;99264.91;5081676;28;20043;-76
2022/11/23 07:18:48;;;;;;;7.25;3.85;;;;;;;6.95;100.00;99271.25;5082659;28;20200;-76
2022/11/23 07:21:13;;;;;;;5.43;2.60;;;;;;;6.99;100.00;99280.38;5083321;28;20038;-74
2022/11/23 07:23:40;;;;;;;5.95;2.35;;;;;;;7.07;100.00;99290.78;5082165;28;20047;-74
2022/11/23 07:26:07;;;;;;;5.10;2.03;;;;;;;7.14;100.00;99286.59;5079905;28;20044;-76
2022/11/23 07:28:32;;;;;;;5.43;1.85;;;;;;;7.17;100.00;99288.91;5082148;28;20401;-76
2022/11/23 07:30:58;;;;;;;4.63;2.17;;;;;;;7.17;100.00;99288.91;5081675;28;20024;-77
2022/11/23 07:33:23;;;;;;;6.07;2.47;;;;;;;7.14;100.00;99293.56;5082391;28;20031;-76
2022/11/23 07:35:48;;;;;;;6.72;2.78;;;;;;;7.16;100.00;99291.63;5083889;28;20123;-76
2022/11/23 07:38:14;;;;;;;5.90;2.40;;;;;;;7.21;100.00;99289.41;5080882;28;20067;-76
2022/11/23 07:40:39;;;;;;;7.80;2.60;;;;;;;7.27;100.00;99294.00;5080609;28;20131;-69
2022/11/23 07:43:05;;;;;;;5.95;2.78;;;;;;;7.29;100.00;99290.28;5081529;28;20089;-76
2022/11/23 07:45:32;;;;;;;7.68;3.60;;;;;;;7.36;100.00;99293.09;5085122;28;20122;-76
2022/11/23 07:48:03;;;;;;;6.57;3.40;;;;;;;7.45;100.00;99296.53;5082260;28;20035;-76
2022/11/23 07:50:29;;;;;;;4.78;2.88;;;;;;;7.57;100.00;99303.06;5081141;28;20032;-75
2022/11/23 07:52:54;;;;;;;5.63;3.38;;;;;;;7.66;100.00;99308.16;5080634;28;20042;-76
2022/11/23 07:55:20;;;;;;;6.53;2.75;;;;;;;7.70;100.00;99306.06;5081721;28;20151;-76
2022/11/23 07:57:46;;;;;;;4.47;2.08;;;;;;;7.71;100.00;99317.25;5080561;28;20039;-76
2022/11/23 08:00:11;;;;;;;4.15;2.42;;;;;;;7.76;100.00;99320.19;5081162;28;20071;-76
2022/11/23 08:02:37;;;;;;;3.95;2.33;;;;;;;7.85;100.00;99321.88;5070645;28;20024;-75
2022/11/23 08:05:03;;;;;;;2.60;0.95;;;;;;;7.89;100.00;99333.56;5080486;28;20036;-76
2022/11/23 08:07:29;;;;;;;3.03;0.93;;;;;;;7.89;100.00;99342.16;5078241;28;20030;-75
2022/11/23 08:09:54;;;;;;;5.93;1.48;;;;;;;7.97;100.00;99341.38;5079847;28;20043;-76
2022/11/23 08:12:20;;;;;;;6.03;0.93;;;;;;;8.06;100.00;99344.81;5078348;28;20036;-76
2022/11/23 08:14:45;;;;;;;2.72;1.33;;;;;;;8.11;100.00;99351.16;5080552;28;20028;-76
2022/11/23 08:17:11;;;;;;;2.25;0.98;;;;;;;8.15;100.00;99352.47;5079387;28;20028;-75
2022/11/23 08:19:36;;;;;;;2.10;0.90;;;;;;;8.13;100.00;99357.00;5080298;28;20051;-75
2022/11/23 08:22:02;;;;;;;1.50;0.82;;;;;;;8.06;100.00;99357.78;5079548;28;20968;-74
2022/11/23 08:24:27;;;;;;;3.58;1.70;;;;;;;8.02;100.00;99354.69;5078368;28;20052;-75
2022/11/23 08:26:53;;;;;;;3.45;1.92;;;;;;;7.97;100.00;99356.94;5078645;28;20036;-75
2022/11/23 08:29:18;;;;;;;5.47;1.38;;;;;;;8.02;100.00;99370.28;5081122;28;20046;-75
2022/11/23 08:31:43;;;;;;;2.55;1.13;;;;;;;8.01;100.00;99362.63;5098247;28;20031;-75
2022/11/23 08:34:09;;;;;;;2.88;1.40;;;;;;;8.00;100.00;99359.22;5089331;28;20057;-76
2022/11/23 08:36:35;;;;;;;1.90;0.70;;;;;;;8.06;100.00;99368.16;5079384;28;20379;-75
2022/11/23 08:39:01;;;;;;;2.80;1.00;;;;;;;8.11;100.00;99376.28;5087095;28;20033;-75
2022/11/23 08:41:26;;;;;;;1.63;0.80;;;;;;;8.14;100.00;99375.97;5081655;28;20039;-74
2022/11/23 08:43:52;;;;;;;1.25;0.50;;;;;;;8.17;100.00;99376.47;5085380;28;20040;-75
2022/11/23 08:46:18;;;;;;;1.33;0.50;;;;;;;8.22;100.00;99376.81;5088449;28;20088;-75
2022/11/23 08:48:44;;;;;;;2.08;0.57;;;;;;;8.38;100.00;99386.50;5086846;28;20683;-75
2022/11/23 08:51:10;;;;;;;1.52;0.40;;;;;;;8.53;100.00;99391.88;5086640;28;20039;-75
2022/11/23 08:53:36;;;;;;;32.25;1.60;;;;;;;8.58;100.00;99387.03;5086060;28;20379;-76
2022/11/23 08:56:05;;;;;;;48.83;2.35;;;;;;;8.67;100.00;99388.69;5087802;28;20040;-76
2022/11/23 08:58:31;;;;;;;209.18;12.25;;;;;;;8.69;100.00;99391.94;5099723;28;20096;-76
2022/11/23 09:00:56;;;;;;;31.73;2.25;;;;;;;8.73;100.00;99398.44;5093153;28;20493;-76
2022/11/23 09:03:22;;;;;;;162.57;9.13;;;;;;;8.80;100.00;99402.03;5083666;28;20051;-75
2022/11/23 09:05:49;;;;;;;15.07;0.50;;;;;;;8.86;100.00;99404.00;5083074;28;20036;-75
2022/11/23 09:08:15;;;;;;;22.73;1.50;;;;;;;8.89;100.00;99402.88;5082396;28;20032;-75
2022/11/23 09:10:41;;;;;;;27.52;1.23;;;;;;;8.90;100.00;99409.69;5096170;28;20039;-75
2022/11/23 09:13:07;;;;;;;9.15;0.60;;;;;;;8.83;100.00;99422.50;5090736;28;20035;-73
2022/11/23 09:15:33;;;;;;;2.10;0.20;;;;;;;8.76;100.00;99426.69;5095159;28;20028;-73
2022/11/23 09:17:58;;;;;;;1.42;0.30;;;;;;;8.82;100.00;99427.84;5079148;28;20448;-74
2022/11/23 09:20:24;;;;;;;1.63;0.20;;;;;;;8.87;100.00;99430.78;5081660;28;20471;-73
2022/11/23 09:22:54;;;;;;;0.47;0.20;;;;;;;8.82;100.00;99427.84;5079350;28;20439;-73
2022/11/23 09:25:20;;;;;;;2.35;0.10;;;;;;;8.80;100.00;99435.81;5078030;28;20032;-73
2022/11/23 09:27:46;;;;;;;1.73;0.20;;;;;;;8.79;100.00;99441.16;5078069;28;20071;-74
2022/11/23 09:30:11;;;;;;;0.70;0.10;;;;;;;8.78;100.00;99437.75;5083265;28;20125;-75
2022/11/23 09:32:37;;;;;;;0.47;0.10;;;;;;;8.84;99.87;99444.09;5082916;28;20181;-75
2022/11/23 09:35:03;;;;;;;0.60;0.13;;;;;;;8.86;99.50;99439.56;5080861;28;20043;-75
2022/11/23 09:37:28;;;;;;;0.50;0.10;;;;;;;8.84;97.70;99446.69;5082354;28;20039;-74
2022/11/23 09:39:54;;;;;;;0.70;0.20;;;;;;;8.80;97.59;99451.38;5083288;28;20028;-75
2022/11/23 09:42:41;;;;;;;0.90;0.13;;;;;;;8.82;97.42;99454.63;5082733;28;20109;-74
2022/11/23 09:45:30;;;;;;;0.70;0.15;;;;;;;8.76;95.76;99455.28;5079230;28;20036;-75
2022/11/23 09:48:31;;;;;;;1.17;0.10;;;;;;;8.76;96.64;99455.28;5089778;28;20391;-75
2022/11/23 09:51:05;;;;;;;0.35;0.17;;;;;;;8.85;97.06;99459.53;5067754;28;20042;-74
2022/11/23 09:53:45;;;;;;;1.35;0.20;;;;;;;8.87;96.27;99457.59;5088578;28;20035;-74
2022/11/23 09:56:17;;;;;;;0.73;0.10;;;;;;;8.90;96.74;99469.44;5091423;28;20064;-74
2022/11/23 09:58:43;;;;;;;0.38;0.10;;;;;;;8.80;96.00;99469.56;5084621;28;20034;-74
2022/11/23 10:01:14;;;;;;;2.35;0.20;;;;;;;8.83;96.39;99471.03;5090522;28;20032;-74
2022/11/23 10:03:43;;;;;;;0.70;0.20;;;;;;;8.85;96.79;99475.09;5092364;28;20020;-75
2022/11/23 10:06:11;;;;;;;0.98;0.30;;;;;;;8.91;97.16;99474.47;5091074;28;20032;-74
2022/11/23 10:08:54;;;;;;;1.17;0.32;;;;;;;8.92;96.33;99477.91;5089794;28;20115;-74
2022/11/23 10:11:34;;;;;;;1.27;0.30;;;;;;;8.91;97.38;99477.09;5090474;28;20039;-74
2022/11/23 10:13:59;;;;;;;1.70;0.65;;;;;;;8.93;97.45;99469.13;5089782;28;20464;-74
2022/11/23 10:16:53;;;;;;;2.08;0.50;;;;;;;8.88;93.42;99472.19;5087809;28;20039;-74
2022/11/23 10:19:46;;;;;;;1.38;0.40;;;;;;;8.80;94.07;99472.16;5086761;28;20043;-75
2022/11/23 10:22:21;;;;;;;1.77;0.50;;;;;;;8.77;96.58;99477.69;5086785;28;20124;-74
2022/11/23 10:24:50;;;;;;;0.98;0.35;;;;;;;8.77;96.43;99466.47;5090606;28;20044;-74
2022/11/23 10:27:17;;;;;;;1.00;0.30;;;;;;;8.77;95.45;99476.84;5090251;28;20356;-73
2022/11/23 10:29:43;;;;;;;2.17;0.80;;;;;;;8.80;96.29;99476.53;5088793;28;20506;-74
2022/11/23 10:32:26;;;;;;;2.03;0.50;;;;;;;8.79;94.94;99480.13;5091793;28;20040;-72
2022/11/23 10:35:04;;;;;;;0.90;0.43;;;;;;;8.82;95.69;99478.03;5087737;28;20020;-72
2022/11/23 10:37:31;;;;;;;0.98;0.30;;;;;;;8.84;96.51;99477.88;5088856;28;20043;-72
2022/11/23 10:39:57;;;;;;;1.25;0.52;;;;;;;8.86;96.27;99476.72;5090608;28;20443;-72
2022/11/23 10:42:37;;;;;;;1.00;0.30;;;;;;;8.87;95.21;99483.56;5090144;28;20036;-72
2022/11/23 10:45:04;;;;;;;1.23;0.35;;;;;;;8.89;96.25;99470.41;5090969;28;20028;-72
2022/11/23 10:47:47;;;;;;;1.00;0.40;;;;;;;8.91;95.07;99474.47;5089108;28;20032;-71
2022/11/23 10:50:43;;;;;;;1.42;0.40;;;;;;;8.91;93.01;99473.66;5089910;28;20040;-72
2022/11/23 10:53:21;;;;;;;1.45;0.30;;;;;;;8.89;95.14;99476.44;5081080;28;20052;-73
2022/11/23 10:55:58;;;;;;;0.98;0.40;;;;;;;8.89;94.58;99480.81;5081368;28;20032;-73
2022/11/23 10:58:27;;;;;;;0.63;0.30;;;;;;;8.90;95.45;99492.81;5090788;28;20126;-73
2022/11/23 11:01:01;;;;;;;0.75;0.30;;;;;;;8.91;94.27;99481.47;5090521;28;20103;-73
2022/11/23 11:03:32;;;;;;;3.42;0.55;;;;;;;8.92;95.62;99483.09;5088323;28;20039;-73
2022/11/23 11:05:58;;;;;;;1.65;0.30;;;;;;;8.91;95.92;99471.88;5088661;28;20337;-73
2022/11/23 11:08:34;;;;;;;1.27;0.50;;;;;;;8.92;95.27;99478.72;5088056;28;20482;-73
2022/11/23 11:11:07;;;;;;;1.33;0.30;;;;;;;8.95;96.19;99481.00;5089872;28;20060;-73
2022/11/23 11:13:46;;;;;;;0.80;0.30;;;;;;;8.96;94.49;99482.63;5089099;28;20093;-73
2022/11/23 11:16:23;;;;;;;0.77;0.30;;;;;;;9.01;95.83;99486.50;5090581;28;20122;-73
2022/11/23 11:18:49;;;;;;;0.43;0.20;;;;;;;9.01;95.09;99489.91;5089746;28;20028;-73
2022/11/23 11:21:34;;;;;;;1.63;0.38;;;;;;;9.04;94.53;99489.59;5090543;28;20130;-73
2022/11/23 11:24:03;;;;;;;1.70;0.22;;;;;;;9.08;94.96;99496.09;5088694;28;20048;-73
2022/11/23 11:26:31;;;;;;;1.48;0.45;;;;;;;9.06;94.80;99492.84;5088594;28;20036;-73
2022/11/23 11:29:00;;;;;;;2.30;1.85;;;;;;;9.11;94.96;99489.78;5089757;28;20434;-73
2022/11/23 11:31:58;;;;;;;2.95;0.50;;;;;;;9.11;92.82;99494.97;5090161;28;20042;-73
2022/11/23 11:34:44;;;;;;;0.65;0.20;;;;;;;9.10;94.94;99488.16;5084985;28;20042;-74
2022/11/23 11:37:16;;;;;;;0.47;0.20;;;;;;;9.12;95.00;99489.63;5087365;28;20040;-74
2022/11/23 11:39:49;;;;;;;1.00;0.30;;;;;;;9.16;94.66;99492.72;5088761;28;20104;-74